首页
METAR-TAF:

METAR-TAF

机场 :

丹吉尔, 弗吉尼亚州, 美国

纬度: 37-49-31N, 经度: 075-59-52W, 海拔: 2米

当前天气观测

该预报发布于24分钟前的01:00 UTC
风速11节,风向西南
温度 17°C
湿度 77%
气压 1017 hPa
能見度: 16.1公里
天空无云

METAR: KTGI 240100Z AUTO 22011KT 10SM CLR 17/13 A3002 RMK AO1

时间: 21:24 (01:24 UTC)


TAF: 丢失

超过4000个机场的气象观测和天气预报(METAR&TAF报告)。

可查询的气象台以黄色和红色小点在地图上表示。

将鼠标移到小点上方,可查看气象台名称。

然后点击查看天气观测和预报。

如需切换地图:点击带黑十字的绿色按钮放大地图;点击带横线的绿色按钮缩小地图;或者点击绿色箭头查看邻近地区的地图。


METAR-TAF: